sensor_id;sensor_type;location;lat;lon;timestamp;temperature;humidity
18948;DHT22;9607;51.600;7.558;2023-02-18T00:00:42;10.20;99.90
18948;DHT22;9607;51.600;7.558;2023-02-18T00:03:10;10.20;99.90
18948;DHT22;9607;51.600;7.558;2023-02-18T00:05:37;10.20;99.90
18948;DHT22;9607;51.600;7.558;2023-02-18T00:08:03;10.20;99.90
18948;DHT22;9607;51.600;7.558;2023-02-18T00:10:30;10.30;99.90
18948;DHT22;9607;51.600;7.558;2023-02-18T00:12:57;10.30;99.90
18948;DHT22;9607;51.600;7.558;2023-02-18T00:15:25;10.30;99.90
18948;DHT22;9607;51.600;7.558;2023-02-18T00:17:52;10.30;99.90
18948;DHT22;9607;51.600;7.558;2023-02-18T00:20:20;10.40;99.90
18948;DHT22;9607;51.600;7.558;2023-02-18T00:22:50;10.30;99.90
18948;DHT22;9607;51.600;7.558;2023-02-18T00:25:17;10.30;99.90
18948;DHT22;9607;51.600;7.558;2023-02-18T00:27:44;10.30;99.90
18948;DHT22;9607;51.600;7.558;2023-02-18T00:30:11;10.30;99.90
18948;DHT22;9607;51.600;7.558;2023-02-18T00:32:38;10.30;99.90
18948;DHT22;9607;51.600;7.558;2023-02-18T00:35:05;10.40;99.90
18948;DHT22;9607;51.600;7.558;2023-02-18T00:37:33;10.40;99.90
18948;DHT22;9607;51.600;7.558;2023-02-18T00:40:01;10.40;99.90
18948;DHT22;9607;51.600;7.558;2023-02-18T00:42:28;10.40;99.90
18948;DHT22;9607;51.600;7.558;2023-02-18T00:44:55;10.40;99.90
18948;DHT22;9607;51.600;7.558;2023-02-18T00:47:22;10.40;99.90
18948;DHT22;9607;51.600;7.558;2023-02-18T00:49:49;10.40;99.90
18948;DHT22;9607;51.600;7.558;2023-02-18T00:52:15;10.40;99.90
18948;DHT22;9607;51.600;7.558;2023-02-18T00:54:44;10.40;99.90
18948;DHT22;9607;51.600;7.558;2023-02-18T00:57:10;10.40;99.90
18948;DHT22;9607;51.600;7.558;2023-02-18T00:59:37;10.40;99.90
18948;DHT22;9607;51.600;7.558;2023-02-18T01:02:04;10.40;99.90
18948;DHT22;9607;51.600;7.558;2023-02-18T01:04:31;10.40;99.90
18948;DHT22;9607;51.600;7.558;2023-02-18T01:06:58;10.40;99.90
18948;DHT22;9607;51.600;7.558;2023-02-18T01:09:25;10.40;99.90
18948;DHT22;9607;51.600;7.558;2023-02-18T01:11:53;10.40;99.90
18948;DHT22;9607;51.600;7.558;2023-02-18T01:14:20;10.40;99.90
18948;DHT22;9607;51.600;7.558;2023-02-18T01:16:49;10.40;99.90
18948;DHT22;9607;51.600;7.558;2023-02-18T01:19:16;10.40;99.90
18948;DHT22;9607;51.600;7.558;2023-02-18T01:21:43;10.40;99.90
18948;DHT22;9607;51.600;7.558;2023-02-18T01:24:09;10.40;99.90
18948;DHT22;9607;51.600;7.558;2023-02-18T01:26:36;10.40;99.90
18948;DHT22;9607;51.600;7.558;2023-02-18T01:29:04;10.40;99.90
18948;DHT22;9607;51.600;7.558;2023-02-18T01:31:31;10.40;99.90
18948;DHT22;9607;51.600;7.558;2023-02-18T01:33:58;10.40;99.90
18948;DHT22;9607;51.600;7.558;2023-02-18T01:36:25;10.40;99.90
18948;DHT22;9607;51.600;7.558;2023-02-18T01:38:51;10.40;99.90
18948;DHT22;9607;51.600;7.558;2023-02-18T01:41:19;10.40;99.90
18948;DHT22;9607;51.600;7.558;2023-02-18T01:43:46;10.40;99.90
18948;DHT22;9607;51.600;7.558;2023-02-18T01:46:17;10.40;99.90
18948;DHT22;9607;51.600;7.558;2023-02-18T01:48:48;10.40;99.90
18948;DHT22;9607;51.600;7.558;2023-02-18T01:51:19;10.40;99.90
18948;DHT22;9607;51.600;7.558;2023-02-18T01:53:51;10.40;99.90
18948;DHT22;9607;51.600;7.558;2023-02-18T01:56:23;10.40;99.90
18948;DHT22;9607;51.600;7.558;2023-02-18T01:58:54;10.40;99.90
18948;DHT22;9607;51.600;7.558;2023-02-18T02:01:24;10.40;99.90
18948;DHT22;9607;51.600;7.558;2023-02-18T02:03:52;10.40;99.90
18948;DHT22;9607;51.600;7.558;2023-02-18T02:06:21;10.40;99.90
18948;DHT22;9607;51.600;7.558;2023-02-18T02:08:51;10.50;99.90
18948;DHT22;9607;51.600;7.558;2023-02-18T02:11:32;10.40;99.90
18948;DHT22;9607;51.600;7.558;2023-02-18T02:14:14;10.40;99.90
18948;DHT22;9607;51.600;7.558;2023-02-18T02:16:47;10.60;99.90
18948;DHT22;9607;51.600;7.558;2023-02-18T02:19:38;10.40;99.90
18948;DHT22;9607;51.600;7.558;2023-02-18T02:22:42;10.40;99.90
18948;DHT22;9607;51.600;7.558;2023-02-18T02:25:19;10.40;99.90
18948;DHT22;9607;51.600;7.558;2023-02-18T02:28:21;10.40;99.90
18948;DHT22;9607;51.600;7.558;2023-02-18T02:31:07;10.50;99.90
18948;DHT22;9607;51.600;7.558;2023-02-18T02:33:58;10.50;99.90
18948;DHT22;9607;51.600;7.558;2023-02-18T02:36:30;10.40;99.90
18948;DHT22;9607;51.600;7.558;2023-02-18T02:39:07;10.40;99.90
18948;DHT22;9607;51.600;7.558;2023-02-18T02:41:44;10.40;99.90
18948;DHT22;9607;51.600;7.558;2023-02-18T02:44:18;10.40;99.90
18948;DHT22;9607;51.600;7.558;2023-02-18T02:46:49;10.50;99.90
18948;DHT22;9607;51.600;7.558;2023-02-18T02:49:27;10.40;99.90
18948;DHT22;9607;51.600;7.558;2023-02-18T02:52:00;10.40;99.90
18948;DHT22;9607;51.600;7.558;2023-02-18T02:54:29;10.50;99.90
18948;DHT22;9607;51.600;7.558;2023-02-18T02:57:08;10.50;99.90
18948;DHT22;9607;51.600;7.558;2023-02-18T02:59:57;10.50;99.90
18948;DHT22;9607;51.600;7.558;2023-02-18T03:02:36;10.50;99.90
18948;DHT22;9607;51.600;7.558;2023-02-18T03:05:18;10.50;99.90
18948;DHT22;9607;51.600;7.558;2023-02-18T03:07:59;10.50;99.90
18948;DHT22;9607;51.600;7.558;2023-02-18T03:10:48;10.50;99.90
18948;DHT22;9607;51.600;7.558;2023-02-18T03:13:27;10.50;99.90
18948;DHT22;9607;51.600;7.558;2023-02-18T03:16:04;10.50;99.90
18948;DHT22;9607;51.600;7.558;2023-02-18T03:18:39;10.50;99.90
18948;DHT22;9607;51.600;7.558;2023-02-18T03:21:10;10.50;99.90
18948;DHT22;9607;51.600;7.558;2023-02-18T03:23:43;10.50;99.90
18948;DHT22;9607;51.600;7.558;2023-02-18T03:26:14;10.50;99.90
18948;DHT22;9607;51.600;7.558;2023-02-18T03:28:42;10.50;99.90
18948;DHT22;9607;51.600;7.558;2023-02-18T03:31:12;10.50;99.90
18948;DHT22;9607;51.600;7.558;2023-02-18T03:33:43;10.50;99.90
18948;DHT22;9607;51.600;7.558;2023-02-18T03:36:12;10.50;99.90
18948;DHT22;9607;51.600;7.558;2023-02-18T03:38:44;10.50;99.90
18948;DHT22;9607;51.600;7.558;2023-02-18T03:41:14;10.40;99.90
18948;DHT22;9607;51.600;7.558;2023-02-18T03:43:48;10.50;99.90
18948;DHT22;9607;51.600;7.558;2023-02-18T03:46:15;10.40;99.90
18948;DHT22;9607;51.600;7.558;2023-02-18T03:48:43;10.40;99.90
18948;DHT22;9607;51.600;7.558;2023-02-18T03:51:10;10.40;99.90
18948;DHT22;9607;51.600;7.558;2023-02-18T03:53:37;10.40;99.90
18948;DHT22;9607;51.600;7.558;2023-02-18T03:56:05;10.40;99.90
18948;DHT22;9607;51.600;7.558;2023-02-18T03:58:32;10.40;99.90
18948;DHT22;9607;51.600;7.558;2023-02-18T04:00:59;10.40;99.90
18948;DHT22;9607;51.600;7.558;2023-02-18T04:03:26;10.40;99.90
18948;DHT22;9607;51.600;7.558;2023-02-18T04:05:53;10.40;99.90
18948;DHT22;9607;51.600;7.558;2023-02-18T04:08:20;10.40;99.90
18948;DHT22;9607;51.600;7.558;2023-02-18T04:10:46;10.40;99.90
18948;DHT22;9607;51.600;7.558;2023-02-18T04:13:15;10.40;99.90
18948;DHT22;9607;51.600;7.558;2023-02-18T04:15:42;10.40;99.90
18948;DHT22;9607;51.600;7.558;2023-02-18T04:18:09;10.40;99.90
18948;DHT22;9607;51.600;7.558;2023-02-18T04:20:35;10.40;99.90
18948;DHT22;9607;51.600;7.558;2023-02-18T04:23:03;10.40;99.90
18948;DHT22;9607;51.600;7.558;2023-02-18T04:25:30;10.30;99.90
18948;DHT22;9607;51.600;7.558;2023-02-18T04:27:57;10.40;99.90
18948;DHT22;9607;51.600;7.558;2023-02-18T04:30:25;10.40;99.90
18948;DHT22;9607;51.600;7.558;2023-02-18T04:32:53;10.40;99.90
18948;DHT22;9607;51.600;7.558;2023-02-18T04:35:20;10.40;99.90
18948;DHT22;9607;51.600;7.558;2023-02-18T04:37:46;10.40;99.90
18948;DHT22;9607;51.600;7.558;2023-02-18T04:40:14;10.40;99.90
18948;DHT22;9607;51.600;7.558;2023-02-18T04:42:41;10.40;99.90
18948;DHT22;9607;51.600;7.558;2023-02-18T04:45:08;10.50;99.90
18948;DHT22;9607;51.600;7.558;2023-02-18T04:47:36;10.40;99.90
18948;DHT22;9607;51.600;7.558;2023-02-18T04:50:03;10.50;99.90
18948;DHT22;9607;51.600;7.558;2023-02-18T04:52:30;10.50;99.90
18948;DHT22;9607;51.600;7.558;2023-02-18T04:54:57;10.40;99.90
18948;DHT22;9607;51.600;7.558;2023-02-18T04:57:24;10.40;99.90
18948;DHT22;9607;51.600;7.558;2023-02-18T04:59:51;10.50;99.90
18948;DHT22;9607;51.600;7.558;2023-02-18T05:02:18;10.40;99.90
18948;DHT22;9607;51.600;7.558;2023-02-18T05:04:46;10.40;99.90
18948;DHT22;9607;51.600;7.558;2023-02-18T05:07:13;10.40;99.90
18948;DHT22;9607;51.600;7.558;2023-02-18T05:09:40;10.40;99.90
18948;DHT22;9607;51.600;7.558;2023-02-18T05:12:07;10.40;99.90
18948;DHT22;9607;51.600;7.558;2023-02-18T05:14:34;10.50;99.90
18948;DHT22;9607;51.600;7.558;2023-02-18T05:17:01;10.40;99.90
18948;DHT22;9607;51.600;7.558;2023-02-18T05:19:28;10.40;99.90
18948;DHT22;9607;51.600;7.558;2023-02-18T05:21:56;10.40;99.90
18948;DHT22;9607;51.600;7.558;2023-02-18T05:24:22;10.50;99.90
18948;DHT22;9607;51.600;7.558;2023-02-18T05:26:49;10.50;99.90
18948;DHT22;9607;51.600;7.558;2023-02-18T05:29:17;10.40;99.90
18948;DHT22;9607;51.600;7.558;2023-02-18T05:31:43;10.40;99.90
18948;DHT22;9607;51.600;7.558;2023-02-18T05:34:10;10.40;99.90
18948;DHT22;9607;51.600;7.558;2023-02-18T05:36:37;10.40;99.90
18948;DHT22;9607;51.600;7.558;2023-02-18T05:39:05;10.40;99.90
18948;DHT22;9607;51.600;7.558;2023-02-18T05:41:32;10.40;99.90
18948;DHT22;9607;51.600;7.558;2023-02-18T05:43:59;10.40;99.90
18948;DHT22;9607;51.600;7.558;2023-02-18T05:46:43;10.30;99.90
18948;DHT22;9607;51.600;7.558;2023-02-18T05:49:09;10.30;99.90
18948;DHT22;9607;51.600;7.558;2023-02-18T05:51:37;10.30;99.90
18948;DHT22;9607;51.600;7.558;2023-02-18T05:54:05;10.40;99.90
18948;DHT22;9607;51.600;7.558;2023-02-18T05:56:32;10.30;99.90
18948;DHT22;9607;51.600;7.558;2023-02-18T05:58:59;10.30;99.90
18948;DHT22;9607;51.600;7.558;2023-02-18T06:01:25;10.40;99.90
18948;DHT22;9607;51.600;7.558;2023-02-18T06:03:52;10.30;99.90
18948;DHT22;9607;51.600;7.558;2023-02-18T06:06:19;10.30;99.90
18948;DHT22;9607;51.600;7.558;2023-02-18T06:08:46;10.30;99.90
18948;DHT22;9607;51.600;7.558;2023-02-18T06:11:14;10.30;99.90
18948;DHT22;9607;51.600;7.558;2023-02-18T06:13:41;10.30;99.90
18948;DHT22;9607;51.600;7.558;2023-02-18T06:16:07;10.30;99.90
18948;DHT22;9607;51.600;7.558;2023-02-18T06:18:34;10.30;99.90
18948;DHT22;9607;51.600;7.558;2023-02-18T06:21:01;10.30;99.90
18948;DHT22;9607;51.600;7.558;2023-02-18T06:23:28;10.30;99.90
18948;DHT22;9607;51.600;7.558;2023-02-18T06:25:54;10.20;99.90
18948;DHT22;9607;51.600;7.558;2023-02-18T06:28:23;10.20;99.90
18948;DHT22;9607;51.600;7.558;2023-02-18T06:30:51;10.20;99.90
18948;DHT22;9607;51.600;7.558;2023-02-18T06:33:20;10.30;99.90
18948;DHT22;9607;51.600;7.558;2023-02-18T06:35:56;10.20;99.90
18948;DHT22;9607;51.600;7.558;2023-02-18T06:38:27;10.20;99.90
18948;DHT22;9607;51.600;7.558;2023-02-18T06:40:54;10.20;99.90
18948;DHT22;9607;51.600;7.558;2023-02-18T06:43:22;10.20;99.90
18948;DHT22;9607;51.600;7.558;2023-02-18T06:45:49;10.20;99.90
18948;DHT22;9607;51.600;7.558;2023-02-18T06:48:16;10.20;99.90
18948;DHT22;9607;51.600;7.558;2023-02-18T06:50:43;10.20;99.90
18948;DHT22;9607;51.600;7.558;2023-02-18T06:53:11;10.20;99.90
18948;DHT22;9607;51.600;7.558;2023-02-18T06:55:39;10.20;99.90
18948;DHT22;9607;51.600;7.558;2023-02-18T06:58:07;10.20;99.90
18948;DHT22;9607;51.600;7.558;2023-02-18T07:00:36;10.20;99.90
18948;DHT22;9607;51.600;7.558;2023-02-18T07:03:03;10.20;99.90
18948;DHT22;9607;51.600;7.558;2023-02-18T07:05:32;10.20;99.90
18948;DHT22;9607;51.600;7.558;2023-02-18T07:07:59;10.20;99.90
18948;DHT22;9607;51.600;7.558;2023-02-18T07:10:26;10.20;99.90
18948;DHT22;9607;51.600;7.558;2023-02-18T07:12:53;10.20;99.90
18948;DHT22;9607;51.600;7.558;2023-02-18T07:15:20;10.20;99.90
18948;DHT22;9607;51.600;7.558;2023-02-18T07:17:50;10.20;99.90
18948;DHT22;9607;51.600;7.558;2023-02-18T07:20:17;10.20;99.90
18948;DHT22;9607;51.600;7.558;2023-02-18T07:22:43;10.20;99.90
18948;DHT22;9607;51.600;7.558;2023-02-18T07:25:11;10.20;99.90
18948;DHT22;9607;51.600;7.558;2023-02-18T07:27:37;10.20;99.90
18948;DHT22;9607;51.600;7.558;2023-02-18T07:30:05;10.20;99.90
18948;DHT22;9607;51.600;7.558;2023-02-18T07:32:33;10.20;99.90
18948;DHT22;9607;51.600;7.558;2023-02-18T07:35:02;10.20;99.90
18948;DHT22;9607;51.600;7.558;2023-02-18T07:37:29;10.20;99.90
18948;DHT22;9607;51.600;7.558;2023-02-18T07:39:55;10.20;99.90
18948;DHT22;9607;51.600;7.558;2023-02-18T07:42:22;10.20;99.90
18948;DHT22;9607;51.600;7.558;2023-02-18T07:44:49;10.20;99.90
18948;DHT22;9607;51.600;7.558;2023-02-18T07:47:17;10.20;99.90
18948;DHT22;9607;51.600;7.558;2023-02-18T07:49:44;10.20;99.90
18948;DHT22;9607;51.600;7.558;2023-02-18T07:52:13;10.20;99.90
18948;DHT22;9607;51.600;7.558;2023-02-18T07:54:40;10.20;99.90
18948;DHT22;9607;51.600;7.558;2023-02-18T07:57:07;10.20;99.90
18948;DHT22;9607;51.600;7.558;2023-02-18T07:59:33;10.20;99.90
18948;DHT22;9607;51.600;7.558;2023-02-18T08:02:00;10.20;99.90
18948;DHT22;9607;51.600;7.558;2023-02-18T08:04:27;10.20;99.90
18948;DHT22;9607;51.600;7.558;2023-02-18T08:06:54;10.20;99.90
18948;DHT22;9607;51.600;7.558;2023-02-18T08:09:23;10.20;99.90
18948;DHT22;9607;51.600;7.558;2023-02-18T08:11:49;10.10;99.90
18948;DHT22;9607;51.600;7.558;2023-02-18T08:14:16;10.10;99.90
18948;DHT22;9607;51.600;7.558;2023-02-18T08:16:43;10.20;99.90
18948;DHT22;9607;51.600;7.558;2023-02-18T08:19:10;10.20;99.90
18948;DHT22;9607;51.600;7.558;2023-02-18T08:21:37;10.20;99.90
18948;DHT22;9607;51.600;7.558;2023-02-18T08:24:04;10.20;99.90
18948;DHT22;9607;51.600;7.558;2023-02-18T08:26:33;10.20;99.90
18948;DHT22;9607;51.600;7.558;2023-02-18T08:29:00;10.20;99.90
18948;DHT22;9607;51.600;7.558;2023-02-18T08:31:28;10.20;99.90
18948;DHT22;9607;51.600;7.558;2023-02-18T08:33:56;10.30;99.90
18948;DHT22;9607;51.600;7.558;2023-02-18T08:36:24;10.30;99.90
18948;DHT22;9607;51.600;7.558;2023-02-18T08:38:52;10.30;99.90
18948;DHT22;9607;51.600;7.558;2023-02-18T08:41:19;10.40;99.90
18948;DHT22;9607;51.600;7.558;2023-02-18T08:43:47;10.40;99.90
18948;DHT22;9607;51.600;7.558;2023-02-18T08:46:15;10.40;99.90
18948;DHT22;9607;51.600;7.558;2023-02-18T08:48:42;10.40;99.90
18948;DHT22;9607;51.600;7.558;2023-02-18T08:51:13;10.40;99.90
18948;DHT22;9607;51.600;7.558;2023-02-18T08:53:40;10.40;99.90
18948;DHT22;9607;51.600;7.558;2023-02-18T08:56:08;10.40;99.90
18948;DHT22;9607;51.600;7.558;2023-02-18T08:58:35;10.40;99.90
18948;DHT22;9607;51.600;7.558;2023-02-18T09:01:04;10.40;99.90
18948;DHT22;9607;51.600;7.558;2023-02-18T09:03:32;10.50;99.90
18948;DHT22;9607;51.600;7.558;2023-02-18T09:06:00;10.50;99.90
18948;DHT22;9607;51.600;7.558;2023-02-18T09:08:26;10.50;99.90
18948;DHT22;9607;51.600;7.558;2023-02-18T09:10:55;10.50;99.90
18948;DHT22;9607;51.600;7.558;2023-02-18T09:13:22;10.50;99.90
18948;DHT22;9607;51.600;7.558;2023-02-18T09:15:56;10.50;99.90
18948;DHT22;9607;51.600;7.558;2023-02-18T09:18:25;10.50;99.90
18948;DHT22;9607;51.600;7.558;2023-02-18T09:20:57;10.50;99.90
18948;DHT22;9607;51.600;7.558;2023-02-18T09:23:25;10.40;99.90
18948;DHT22;9607;51.600;7.558;2023-02-18T09:25:52;10.40;99.90
18948;DHT22;9607;51.600;7.558;2023-02-18T09:28:19;10.30;99.90
18948;DHT22;9607;51.600;7.558;2023-02-18T09:30:46;10.20;99.90
18948;DHT22;9607;51.600;7.558;2023-02-18T09:33:13;10.10;99.90
18948;DHT22;9607;51.600;7.558;2023-02-18T09:35:43;10.10;99.90
18948;DHT22;9607;51.600;7.558;2023-02-18T09:38:12;10.00;99.90
18948;DHT22;9607;51.600;7.558;2023-02-18T09:40:43;10.00;99.90
18948;DHT22;9607;51.600;7.558;2023-02-18T09:43:18;9.90;99.90
18948;DHT22;9607;51.600;7.558;2023-02-18T09:45:48;9.90;99.90
18948;DHT22;9607;51.600;7.558;2023-02-18T09:48:15;9.80;99.90
18948;DHT22;9607;51.600;7.558;2023-02-18T09:50:47;9.80;99.90
18948;DHT22;9607;51.600;7.558;2023-02-18T09:53:16;9.80;99.90
18948;DHT22;9607;51.600;7.558;2023-02-18T09:55:44;9.80;99.90
18948;DHT22;9607;51.600;7.558;2023-02-18T09:58:13;9.80;99.90
18948;DHT22;9607;51.600;7.558;2023-02-18T10:00:43;9.90;99.90
18948;DHT22;9607;51.600;7.558;2023-02-18T10:03:12;9.80;99.90
18948;DHT22;9607;51.600;7.558;2023-02-18T10:05:49;9.80;99.90
18948;DHT22;9607;51.600;7.558;2023-02-18T10:08:20;9.70;99.90
18948;DHT22;9607;51.600;7.558;2023-02-18T10:10:48;9.70;99.90
18948;DHT22;9607;51.600;7.558;2023-02-18T10:13:17;9.60;99.90
18948;DHT22;9607;51.600;7.558;2023-02-18T10:15:44;9.60;99.90
18948;DHT22;9607;51.600;7.558;2023-02-18T10:18:20;9.50;99.90
18948;DHT22;9607;51.600;7.558;2023-02-18T10:20:51;9.50;99.90
18948;DHT22;9607;51.600;7.558;2023-02-18T10:23:19;9.60;99.90
18948;DHT22;9607;51.600;7.558;2023-02-18T10:25:47;9.60;99.90
18948;DHT22;9607;51.600;7.558;2023-02-18T10:28:14;9.60;99.90
18948;DHT22;9607;51.600;7.558;2023-02-18T10:30:49;9.60;99.90
18948;DHT22;9607;51.600;7.558;2023-02-18T10:33:30;9.60;99.90
18948;DHT22;9607;51.600;7.558;2023-02-18T10:36:06;9.60;99.90
18948;DHT22;9607;51.600;7.558;2023-02-18T10:38:40;9.70;99.90
18948;DHT22;9607;51.600;7.558;2023-02-18T10:41:15;9.70;99.90
18948;DHT22;9607;51.600;7.558;2023-02-18T10:43:49;9.70;99.90
18948;DHT22;9607;51.600;7.558;2023-02-18T10:46:25;9.70;99.90
18948;DHT22;9607;51.600;7.558;2023-02-18T10:49:03;9.70;99.90
18948;DHT22;9607;51.600;7.558;2023-02-18T10:51:39;9.60;99.90
18948;DHT22;9607;51.600;7.558;2023-02-18T10:54:07;9.60;99.90
18948;DHT22;9607;51.600;7.558;2023-02-18T10:56:38;9.60;99.90
18948;DHT22;9607;51.600;7.558;2023-02-18T10:59:10;9.60;99.90
18948;DHT22;9607;51.600;7.558;2023-02-18T11:01:39;9.60;99.90
18948;DHT22;9607;51.600;7.558;2023-02-18T11:04:14;9.70;99.90
18948;DHT22;9607;51.600;7.558;2023-02-18T11:06:45;9.60;99.90
18948;DHT22;9607;51.600;7.558;2023-02-18T11:09:28;9.70;99.90
18948;DHT22;9607;51.600;7.558;2023-02-18T11:12:02;9.60;99.90
18948;DHT22;9607;51.600;7.558;2023-02-18T11:14:43;9.60;99.90
18948;DHT22;9607;51.600;7.558;2023-02-18T11:17:20;9.60;99.90
18948;DHT22;9607;51.600;7.558;2023-02-18T11:19:52;9.60;99.90
18948;DHT22;9607;51.600;7.558;2023-02-18T11:22:23;9.60;99.90
18948;DHT22;9607;51.600;7.558;2023-02-18T11:24:53;9.60;99.90
18948;DHT22;9607;51.600;7.558;2023-02-18T11:27:24;9.50;99.90
18948;DHT22;9607;51.600;7.558;2023-02-18T11:29:54;9.50;99.90
18948;DHT22;9607;51.600;7.558;2023-02-18T11:32:26;9.50;99.90
18948;DHT22;9607;51.600;7.558;2023-02-18T11:34:53;9.50;99.90
18948;DHT22;9607;51.600;7.558;2023-02-18T11:37:22;9.60;99.90
18948;DHT22;9607;51.600;7.558;2023-02-18T11:39:52;9.60;99.90
18948;DHT22;9607;51.600;7.558;2023-02-18T11:42:21;9.60;99.90
18948;DHT22;9607;51.600;7.558;2023-02-18T11:44:51;9.60;99.90
18948;DHT22;9607;51.600;7.558;2023-02-18T11:47:21;9.50;99.90
18948;DHT22;9607;51.600;7.558;2023-02-18T11:50:14;9.60;99.90
18948;DHT22;9607;51.600;7.558;2023-02-18T11:52:43;9.50;99.90
18948;DHT22;9607;51.600;7.558;2023-02-18T11:55:15;9.50;99.90
18948;DHT22;9607;51.600;7.558;2023-02-18T11:57:46;9.60;99.90
18948;DHT22;9607;51.600;7.558;2023-02-18T12:00:21;9.60;99.90
18948;DHT22;9607;51.600;7.558;2023-02-18T12:02:49;9.60;99.90
18948;DHT22;9607;51.600;7.558;2023-02-18T12:05:21;9.60;99.90
18948;DHT22;9607;51.600;7.558;2023-02-18T12:07:53;9.70;99.90
18948;DHT22;9607;51.600;7.558;2023-02-18T12:10:24;9.60;99.90
18948;DHT22;9607;51.600;7.558;2023-02-18T12:12:57;9.60;99.90
18948;DHT22;9607;51.600;7.558;2023-02-18T12:15:33;9.70;99.90
18948;DHT22;9607;51.600;7.558;2023-02-18T12:18:21;9.70;99.90
18948;DHT22;9607;51.600;7.558;2023-02-18T12:21:06;9.70;99.90
18948;DHT22;9607;51.600;7.558;2023-02-18T12:23:45;9.70;99.90
18948;DHT22;9607;51.600;7.558;2023-02-18T12:26:21;9.70;99.90
18948;DHT22;9607;51.600;7.558;2023-02-18T12:29:01;9.60;99.90
18948;DHT22;9607;51.600;7.558;2023-02-18T12:34:42;9.60;99.90
18948;DHT22;9607;51.600;7.558;2023-02-18T12:37:45;9.50;99.90
18948;DHT22;9607;51.600;7.558;2023-02-18T12:40:39;9.50;99.90
18948;DHT22;9607;51.600;7.558;2023-02-18T12:43:18;9.50;99.90
18948;DHT22;9607;51.600;7.558;2023-02-18T12:46:00;9.60;99.90
18948;DHT22;9607;51.600;7.558;2023-02-18T12:49:01;9.50;99.90
18948;DHT22;9607;51.600;7.558;2023-02-18T12:51:40;9.50;99.90
18948;DHT22;9607;51.600;7.558;2023-02-18T12:54:30;9.50;99.90
18948;DHT22;9607;51.600;7.558;2023-02-18T13:00:29;9.60;99.90
18948;DHT22;9607;51.600;7.558;2023-02-18T13:03:26;9.60;99.90
18948;DHT22;9607;51.600;7.558;2023-02-18T13:06:02;9.60;99.90
18948;DHT22;9607;51.600;7.558;2023-02-18T13:08:40;9.60;99.90
18948;DHT22;9607;51.600;7.558;2023-02-18T13:11:23;9.70;99.90
18948;DHT22;9607;51.600;7.558;2023-02-18T13:13:58;9.70;99.90
18948;DHT22;9607;51.600;7.558;2023-02-18T13:16:28;9.80;99.90
18948;DHT22;9607;51.600;7.558;2023-02-18T13:19:00;9.80;99.90
18948;DHT22;9607;51.600;7.558;2023-02-18T13:21:29;9.80;99.90
18948;DHT22;9607;51.600;7.558;2023-02-18T13:23:59;9.80;99.90
18948;DHT22;9607;51.600;7.558;2023-02-18T13:26:28;9.80;99.90
18948;DHT22;9607;51.600;7.558;2023-02-18T13:29:14;9.80;99.90
18948;DHT22;9607;51.600;7.558;2023-02-18T13:31:53;9.90;99.90
18948;DHT22;9607;51.600;7.558;2023-02-18T13:34:27;9.90;99.90
18948;DHT22;9607;51.600;7.558;2023-02-18T13:37:05;9.90;99.90
18948;DHT22;9607;51.600;7.558;2023-02-18T13:39:38;9.90;99.90
18948;DHT22;9607;51.600;7.558;2023-02-18T13:42:32;9.90;99.90
18948;DHT22;9607;51.600;7.558;2023-02-18T13:45:26;9.90;99.90
18948;DHT22;9607;51.600;7.558;2023-02-18T13:47:54;9.90;99.90
18948;DHT22;9607;51.600;7.558;2023-02-18T13:50:29;9.90;99.90
18948;DHT22;9607;51.600;7.558;2023-02-18T13:53:22;9.90;99.90
18948;DHT22;9607;51.600;7.558;2023-02-18T13:55:53;9.90;99.90
18948;DHT22;9607;51.600;7.558;2023-02-18T13:58:23;9.90;99.90
18948;DHT22;9607;51.600;7.558;2023-02-18T14:00:55;9.90;99.90
18948;DHT22;9607;51.600;7.558;2023-02-18T14:03:35;9.90;99.90
18948;DHT22;9607;51.600;7.558;2023-02-18T14:06:13;9.80;99.90
18948;DHT22;9607;51.600;7.558;2023-02-18T14:08:40;9.80;99.90
18948;DHT22;9607;51.600;7.558;2023-02-18T14:11:31;9.80;99.90
18948;DHT22;9607;51.600;7.558;2023-02-18T14:17:29;9.80;99.90
18948;DHT22;9607;51.600;7.558;2023-02-18T14:20:29;9.90;99.90
18948;DHT22;9607;51.600;7.558;2023-02-18T14:22:57;9.90;99.90
18948;DHT22;9607;51.600;7.558;2023-02-18T14:25:33;9.90;99.90
18948;DHT22;9607;51.600;7.558;2023-02-18T14:28:33;9.90;99.90
18948;DHT22;9607;51.600;7.558;2023-02-18T14:30:51;9.90;99.90
18948;DHT22;9607;51.600;7.558;2023-02-18T14:33:20;9.90;99.90
18948;DHT22;9607;51.600;7.558;2023-02-18T14:35:49;9.90;99.90
18948;DHT22;9607;51.600;7.558;2023-02-18T14:38:41;9.90;99.90
18948;DHT22;9607;51.600;7.558;2023-02-18T14:41:24;9.90;99.90
18948;DHT22;9607;51.600;7.558;2023-02-18T14:47:21;9.90;99.90
18948;DHT22;9607;51.600;7.558;2023-02-18T14:49:53;9.90;99.90
18948;DHT22;9607;51.600;7.558;2023-02-18T14:52:29;9.90;99.90
18948;DHT22;9607;51.600;7.558;2023-02-18T14:54:59;9.90;99.90
18948;DHT22;9607;51.600;7.558;2023-02-18T14:57:33;9.90;99.90
18948;DHT22;9607;51.600;7.558;2023-02-18T15:00:03;9.90;99.90
18948;DHT22;9607;51.600;7.558;2023-02-18T15:02:35;9.90;99.90
18948;DHT22;9607;51.600;7.558;2023-02-18T15:05:15;10.00;99.90
18948;DHT22;9607;51.600;7.558;2023-02-18T15:07:54;10.00;99.90
18948;DHT22;9607;51.600;7.558;2023-02-18T15:10:24;10.00;99.90
18948;DHT22;9607;51.600;7.558;2023-02-18T15:12:51;10.10;99.90
18948;DHT22;9607;51.600;7.558;2023-02-18T15:15:18;10.10;99.90
18948;DHT22;9607;51.600;7.558;2023-02-18T15:17:47;10.10;99.90
18948;DHT22;9607;51.600;7.558;2023-02-18T15:20:16;10.10;99.90
18948;DHT22;9607;51.600;7.558;2023-02-18T15:22:43;10.10;99.90
18948;DHT22;9607;51.600;7.558;2023-02-18T15:25:12;10.10;99.90
18948;DHT22;9607;51.600;7.558;2023-02-18T15:27:40;10.20;99.90
18948;DHT22;9607;51.600;7.558;2023-02-18T15:30:17;10.20;99.90
18948;DHT22;9607;51.600;7.558;2023-02-18T15:32:48;10.20;99.90
18948;DHT22;9607;51.600;7.558;2023-02-18T15:35:18;10.20;99.90
18948;DHT22;9607;51.600;7.558;2023-02-18T15:37:51;10.20;99.90
18948;DHT22;9607;51.600;7.558;2023-02-18T15:40:19;10.20;99.90
18948;DHT22;9607;51.600;7.558;2023-02-18T15:42:49;10.30;99.90
18948;DHT22;9607;51.600;7.558;2023-02-18T15:45:18;10.30;99.90
18948;DHT22;9607;51.600;7.558;2023-02-18T15:47:48;10.30;99.90
18948;DHT22;9607;51.600;7.558;2023-02-18T15:50:19;10.30;99.90
18948;DHT22;9607;51.600;7.558;2023-02-18T15:52:47;10.30;99.90
18948;DHT22;9607;51.600;7.558;2023-02-18T15:55:21;10.30;99.90
18948;DHT22;9607;51.600;7.558;2023-02-18T15:57:50;10.30;99.90
18948;DHT22;9607;51.600;7.558;2023-02-18T16:00:20;10.30;99.90
18948;DHT22;9607;51.600;7.558;2023-02-18T16:02:53;10.30;99.90
18948;DHT22;9607;51.600;7.558;2023-02-18T16:05:26;10.30;99.90
18948;DHT22;9607;51.600;7.558;2023-02-18T16:07:57;10.30;99.90
18948;DHT22;9607;51.600;7.558;2023-02-18T16:10:46;10.30;99.90
18948;DHT22;9607;51.600;7.558;2023-02-18T16:13:15;10.40;99.90
18948;DHT22;9607;51.600;7.558;2023-02-18T16:15:45;10.40;99.90
18948;DHT22;9607;51.600;7.558;2023-02-18T16:18:25;10.40;99.90
18948;DHT22;9607;51.600;7.558;2023-02-18T16:20:58;10.40;99.90
18948;DHT22;9607;51.600;7.558;2023-02-18T16:23:31;10.40;99.90
18948;DHT22;9607;51.600;7.558;2023-02-18T16:26:09;10.40;99.90
18948;DHT22;9607;51.600;7.558;2023-02-18T16:28:40;10.50;99.90